createdAt,value
2018-09-06T00:00:56.275Z,12.34
2018-09-06T00:02:27.942Z,12.35
2018-09-06T00:03:59.408Z,12.31
2018-09-06T00:07:02.543Z,12.21
2018-09-06T00:08:34.560Z,12.12
2018-09-06T00:10:05.676Z,12.14
2018-09-06T00:11:37.246Z,12.10
2018-09-06T00:13:08.810Z,12.29
2018-09-06T00:14:40.678Z,12.23
2018-09-06T00:16:11.943Z,12.29
2018-09-06T00:17:43.511Z,12.29
2018-09-06T00:19:15.077Z,12.28
2018-09-06T00:20:46.749Z,12.28
2018-09-06T00:22:18.212Z,12.24
2018-09-06T00:23:49.779Z,12.14
2018-09-06T00:25:21.344Z,12.12
2018-09-06T00:26:53.658Z,12.09
2018-09-06T00:28:24.484Z,12.05
2018-09-06T00:29:56.046Z,12.12
2018-09-06T00:31:27.616Z,12.16
2018-09-06T00:32:59.280Z,12.10
2018-09-06T00:34:30.746Z,12.14
2018-09-06T00:36:02.312Z,12.12
2018-09-06T00:37:33.880Z,12.19
2018-09-06T00:39:05.548Z,12.07
2018-09-06T00:40:37.014Z,12.13
2018-09-06T00:42:08.580Z,12.09
2018-09-06T00:43:40.146Z,12.09
2018-09-06T00:45:12.114Z,12.02
2018-09-06T00:46:43.281Z,12.09
2018-09-06T00:48:14.846Z,11.96
2018-09-06T00:49:46.413Z,11.98
2018-09-06T00:51:18.080Z,12.01
2018-09-06T00:52:49.547Z,11.86
2018-09-06T00:54:21.114Z,11.90
2018-09-06T00:55:52.681Z,11.99
2018-09-06T00:57:24.348Z,11.98
2018-09-06T00:58:55.814Z,12.12
2018-09-06T01:00:27.381Z,12.02
2018-09-06T01:01:58.947Z,12.10
2018-09-06T01:03:30.752Z,12.01
2018-09-06T01:05:02.085Z,11.88
2018-09-06T01:06:33.647Z,11.99
2018-09-06T01:08:05.216Z,12.02
2018-09-06T01:09:36.885Z,11.96
2018-09-06T01:11:08.349Z,11.94
2018-09-06T01:12:39.915Z,11.95
2018-09-06T01:14:11.482Z,11.95
2018-09-06T01:15:43.349Z,11.96
2018-09-06T01:17:14.615Z,11.96
2018-09-06T01:18:46.183Z,11.86
2018-09-06T01:20:17.749Z,11.86
2018-09-06T01:21:49.565Z,11.86
2018-09-06T01:23:20.884Z,11.90
2018-09-06T01:24:52.452Z,12.05
2018-09-06T01:26:24.018Z,11.95
2018-09-06T01:27:55.683Z,11.99
2018-09-06T01:29:27.150Z,11.96
2018-09-06T01:30:58.717Z,11.99
2018-09-06T01:32:30.375Z,11.80
2018-09-06T01:34:01.883Z,11.86
2018-09-06T01:35:33.417Z,11.83
2018-09-06T01:37:04.984Z,11.82
2018-09-06T01:38:36.710Z,11.73
2018-09-06T01:40:08.318Z,11.72
2018-09-06T01:41:39.684Z,11.64
2018-09-06T01:43:11.251Z,11.61
2018-09-06T01:44:42.820Z,11.55
2018-09-06T01:46:14.485Z,11.54
2018-09-06T01:47:45.952Z,11.61
2018-09-06T01:49:17.518Z,11.51
2018-09-06T01:50:49.085Z,11.57
2018-09-06T01:52:20.952Z,11.65
2018-09-06T01:53:52.218Z,11.62
2018-09-06T01:55:23.786Z,11.65
2018-09-06T01:56:55.356Z,11.57
2018-09-06T01:58:27.020Z,11.49
2018-09-06T01:59:58.486Z,11.40
2018-09-06T02:01:30.051Z,11.42
2018-09-06T02:03:01.619Z,11.46
2018-09-06T02:04:33.186Z,11.36
2018-09-06T02:06:04.753Z,11.39
2018-09-06T02:07:36.318Z,11.42
2018-09-06T02:09:07.885Z,11.55
2018-09-06T02:10:39.453Z,11.46
2018-09-06T02:12:11.028Z,11.58
2018-09-06T02:13:42.587Z,11.62
2018-09-06T02:15:14.154Z,11.70
2018-09-06T02:16:46.121Z,11.70
2018-09-06T02:18:17.289Z,11.72
2018-09-06T02:19:48.853Z,11.88
2018-09-06T02:21:20.422Z,11.83
2018-09-06T02:22:51.987Z,11.90
2018-09-06T02:24:23.557Z,11.86
2018-09-06T02:25:55.121Z,11.83
2018-09-06T02:27:26.690Z,11.83
2018-09-06T02:28:58.359Z,11.82
2018-09-06T02:30:29.823Z,11.80
2018-09-06T02:32:01.394Z,11.72
2018-09-06T02:33:32.956Z,11.73
2018-09-06T02:35:04.723Z,11.76
2018-09-06T02:36:36.088Z,11.82
2018-09-06T02:38:07.660Z,11.72
2018-09-06T02:39:39.223Z,11.72
2018-09-06T02:41:10.890Z,11.75
2018-09-06T02:42:42.357Z,11.72
2018-09-06T02:44:13.925Z,11.76
2018-09-06T02:45:45.490Z,11.72
2018-09-06T02:47:17.157Z,11.88
2018-09-06T02:48:48.623Z,11.83
2018-09-06T02:50:20.193Z,11.91
2018-09-06T02:51:51.755Z,11.85
2018-09-06T02:53:23.725Z,11.82
2018-09-06T02:54:54.890Z,11.85
2018-09-06T02:56:26.458Z,11.75
2018-09-06T02:57:58.024Z,11.78
2018-09-06T02:59:29.696Z,11.85
2018-09-06T03:01:01.158Z,11.78
2018-09-06T03:02:32.724Z,11.78
2018-09-06T03:04:04.291Z,11.79
2018-09-06T03:05:35.908Z,11.61
2018-09-06T03:07:07.423Z,11.69
2018-09-06T03:08:38.991Z,11.90
2018-09-06T03:10:10.559Z,11.90
2018-09-06T03:11:42.325Z,11.98
2018-09-06T03:13:13.692Z,11.83
2018-09-06T03:16:16.825Z,11.85
2018-09-06T03:17:48.692Z,11.83
2018-09-06T03:19:19.958Z,11.83
2018-09-06T03:22:23.093Z,11.70
2018-09-06T03:23:54.959Z,11.69
2018-09-06T03:25:26.229Z,11.54
2018-09-06T03:26:57.792Z,11.37
2018-09-06T03:28:29.359Z,11.37
2018-09-06T03:30:01.133Z,11.35
2018-09-06T03:31:32.492Z,11.40
2018-09-06T03:33:04.060Z,11.32
2018-09-06T03:34:35.624Z,11.22
2018-09-06T03:36:07.350Z,11.17
2018-09-06T03:37:38.758Z,11.21
2018-09-06T03:39:10.327Z,11.03
2018-09-06T03:40:41.892Z,10.97
2018-09-06T03:42:13.459Z,10.99
2018-09-06T03:43:45.025Z,11.19
2018-09-06T03:45:16.592Z,11.22
2018-09-06T03:46:48.162Z,11.15
2018-09-06T03:48:19.874Z,11.07
2018-09-06T03:49:51.300Z,11.11
2018-09-06T03:51:22.858Z,11.07
2018-09-06T03:52:54.425Z,11.02
2018-09-06T03:54:26.291Z,11.04
2018-09-06T03:55:57.559Z,11.06
2018-09-06T03:57:29.123Z,11.15
2018-09-06T03:59:00.688Z,11.18
2018-09-06T04:00:32.356Z,11.07
2018-09-06T04:02:03.822Z,10.97
2018-09-06T04:03:35.390Z,10.97
2018-09-06T04:06:38.670Z,10.73
2018-09-06T04:08:10.090Z,10.73
2018-09-06T04:09:42.197Z,10.78
2018-09-06T04:11:13.220Z,10.67
2018-09-06T04:12:45.091Z,10.63
2018-09-06T04:14:16.358Z,10.52
2018-09-06T04:15:47.919Z,10.59
2018-09-06T04:17:19.488Z,10.55
2018-09-06T04:18:51.695Z,10.42
2018-09-06T04:20:22.618Z,10.38
2018-09-06T04:21:54.186Z,10.45
2018-09-06T04:23:25.750Z,10.41
2018-09-06T04:24:57.717Z,10.53
2018-09-06T04:26:28.883Z,10.56
2018-09-06T04:28:00.450Z,10.63
2018-09-06T04:29:32.016Z,10.71
2018-09-06T04:31:03.704Z,10.52
2018-09-06T04:32:35.147Z,10.45
2018-09-06T04:34:06.717Z,10.40
2018-09-06T04:35:38.282Z,10.51
2018-09-06T04:37:09.947Z,10.56
2018-09-06T04:38:41.415Z,10.47
2018-09-06T04:40:12.979Z,10.47
2018-09-06T04:41:44.547Z,10.41
2018-09-06T04:43:16.316Z,10.36
2018-09-06T04:44:47.677Z,10.36
2018-09-06T04:46:19.247Z,10.30
2018-09-06T04:47:50.810Z,10.27
2018-09-06T04:49:22.676Z,10.23
2018-09-06T04:50:53.943Z,10.11
2018-09-06T04:52:25.508Z,10.05
2018-09-06T04:53:57.074Z,10.08
2018-09-06T04:55:28.941Z,9.99
2018-09-06T04:57:00.207Z,9.89
2018-09-06T04:58:31.918Z,9.84
2018-09-06T05:00:03.338Z,9.76
2018-09-06T05:01:35.106Z,9.69
2018-09-06T05:03:06.471Z,9.74
2018-09-06T05:04:38.036Z,9.76
2018-09-06T05:06:09.602Z,9.75
2018-09-06T05:07:41.168Z,9.81
2018-09-06T05:09:12.734Z,9.79
2018-09-06T05:10:44.299Z,9.65
2018-09-06T05:12:15.866Z,9.64
2018-09-06T05:13:47.433Z,9.58
2018-09-06T05:15:19.000Z,9.51
2018-09-06T05:16:50.563Z,9.48
2018-09-06T05:18:22.133Z,9.43
2018-09-06T05:19:54.096Z,9.42
2018-09-06T05:21:25.260Z,9.46
2018-09-06T05:22:56.826Z,9.56
2018-09-06T05:24:28.394Z,9.54
2018-09-06T05:26:00.260Z,9.56
2018-09-06T05:27:31.523Z,9.47
2018-09-06T05:29:03.094Z,9.32
2018-09-06T05:30:34.712Z,9.40
2018-09-06T05:32:06.222Z,9.38
2018-09-06T05:33:37.786Z,9.36
2018-09-06T05:35:09.412Z,9.32
2018-09-06T05:36:40.918Z,9.35
2018-09-06T05:38:12.634Z,9.32
2018-09-06T05:39:44.050Z,9.31
2018-09-06T05:41:15.615Z,9.38
2018-09-06T05:42:47.181Z,9.40
2018-09-06T05:44:18.746Z,9.46
2018-09-06T05:45:50.314Z,9.58
2018-09-06T05:47:21.897Z,9.64
2018-09-06T05:48:53.443Z,9.51
2018-09-06T05:50:25.310Z,9.72
2018-09-06T05:51:56.577Z,9.86
2018-09-06T05:53:28.179Z,9.81
2018-09-06T05:54:59.707Z,9.66
2018-09-06T05:56:31.677Z,9.53
2018-09-06T05:58:02.857Z,9.48
2018-09-06T05:59:34.438Z,9.42
2018-09-06T06:01:05.970Z,9.31
2018-09-06T06:02:37.536Z,9.36
2018-09-06T06:04:09.101Z,9.33
2018-09-06T06:05:40.668Z,9.18
2018-09-06T06:07:12.234Z,9.17
2018-09-06T06:08:43.798Z,9.11
2018-09-06T06:10:15.367Z,9.46
2018-09-06T06:11:46.973Z,9.56
2018-09-06T06:13:18.497Z,9.65
2018-09-06T06:14:50.165Z,9.76
2018-09-06T06:16:21.627Z,9.68
2018-09-06T06:17:53.193Z,9.56
2018-09-06T06:19:24.758Z,9.51
2018-09-06T06:20:56.930Z,9.69
2018-09-06T06:22:27.890Z,9.51
2018-09-06T06:23:59.658Z,9.81
2018-09-06T06:25:31.022Z,9.78
2018-09-06T06:27:02.894Z,9.78
2018-09-06T06:28:34.153Z,9.64
2018-09-06T06:30:05.723Z,9.90
2018-09-06T06:31:37.283Z,9.90
2018-09-06T06:33:08.999Z,9.81
2018-09-06T06:34:40.619Z,9.75
2018-09-06T06:36:11.980Z,9.60
2018-09-06T06:37:43.545Z,9.64
2018-09-06T06:39:15.110Z,9.60
2018-09-06T06:40:46.678Z,9.58
2018-09-06T06:42:18.241Z,9.72
2018-09-06T06:43:49.806Z,9.72
2018-09-06T06:48:24.704Z,9.38
2018-09-06T06:49:56.072Z,9.36
2018-09-06T06:51:27.634Z,9.84
2018-09-06T06:52:59.200Z,10.02
2018-09-06T06:54:31.067Z,10.05
2018-09-06T06:56:02.332Z,9.93
2018-09-06T06:57:33.896Z,9.96
2018-09-06T06:59:05.463Z,9.79
2018-09-06T07:00:37.128Z,9.78
2018-09-06T07:02:08.596Z,9.54
2018-09-06T07:03:40.362Z,9.65
2018-09-06T07:05:11.724Z,10.11
2018-09-06T07:06:43.501Z,10.14
2018-09-06T07:08:14.855Z,10.14
2018-09-06T07:09:46.419Z,10.22
2018-09-06T07:11:17.985Z,10.40
2018-09-06T07:12:49.572Z,10.32
2018-09-06T07:14:21.118Z,10.27
2018-09-06T07:15:52.682Z,10.41
2018-09-06T07:17:24.247Z,10.38
2018-09-06T07:18:55.914Z,10.38
2018-09-06T07:20:27.682Z,10.44
2018-09-06T07:21:58.945Z,10.30
2018-09-06T07:23:30.510Z,10.22
2018-09-06T07:25:02.255Z,10.12
2018-09-06T07:26:33.642Z,10.32
2018-09-06T07:28:05.208Z,10.20
2018-09-06T07:29:36.772Z,9.99
2018-09-06T07:31:08.639Z,9.90
2018-09-06T07:32:39.904Z,9.89
2018-09-06T07:34:11.469Z,9.75
2018-09-06T07:35:43.034Z,9.94
2018-09-06T07:37:14.700Z,10.09
2018-09-06T07:38:46.165Z,10.15
2018-09-06T07:40:17.732Z,10.08
2018-09-06T07:41:49.297Z,9.96
2018-09-06T07:43:21.066Z,9.86
2018-09-06T07:46:23.994Z,9.86
2018-09-06T07:47:55.561Z,10.08
2018-09-06T07:49:27.227Z,9.90
2018-09-06T07:50:58.691Z,9.71
2018-09-06T07:52:30.257Z,9.90
2018-09-06T07:54:01.824Z,9.86
2018-09-06T07:55:33.691Z,9.68
2018-09-06T07:57:04.954Z,9.57
2018-09-06T07:58:36.519Z,9.64
2018-09-06T08:00:08.087Z,9.61
2018-09-06T08:01:40.423Z,9.65
2018-09-06T08:03:11.222Z,9.43
2018-09-06T08:04:42.782Z,9.43
2018-09-06T08:06:14.348Z,9.51
2018-09-06T08:07:46.115Z,9.57
2018-09-06T08:09:17.477Z,9.81
2018-09-06T08:10:49.044Z,9.68
2018-09-06T08:12:20.609Z,9.60
2018-09-06T08:13:52.175Z,9.64
2018-09-06T08:15:23.742Z,9.51
2018-09-06T08:16:55.304Z,9.56
2018-09-06T08:18:26.869Z,9.57
2018-09-06T08:19:58.586Z,9.57
2018-09-06T08:21:30.002Z,9.50
2018-09-06T08:23:01.567Z,9.46
2018-09-06T08:24:33.131Z,9.42
2018-09-06T08:26:04.696Z,9.54
2018-09-06T08:27:36.263Z,9.72
2018-09-06T08:29:07.828Z,9.76
2018-09-06T08:30:39.470Z,9.65
2018-09-06T08:32:11.264Z,9.53
2018-09-06T08:33:42.523Z,9.40
2018-09-06T08:35:14.092Z,9.36
2018-09-06T08:36:45.716Z,9.40
2018-09-06T08:38:17.371Z,9.46
2018-09-06T08:39:48.787Z,9.38
2018-09-06T08:41:20.350Z,9.32
2018-09-06T08:42:52.118Z,9.33
2018-09-06T08:44:23.482Z,9.38
2018-09-06T08:45:55.070Z,9.46
2018-09-06T08:47:26.644Z,9.32
2018-09-06T08:48:58.179Z,9.15
2018-09-06T08:50:29.844Z,9.15
2018-09-06T08:52:01.349Z,9.17
2018-09-06T08:53:32.875Z,9.31
2018-09-06T08:55:04.443Z,9.35
2018-09-06T08:56:36.209Z,9.29
2018-09-06T08:58:07.571Z,9.65
2018-09-06T08:59:39.137Z,9.60
2018-09-06T09:01:10.709Z,9.66
2018-09-06T09:02:42.674Z,9.57
2018-09-06T09:04:13.834Z,9.51
2018-09-06T09:05:45.399Z,9.53
2018-09-06T09:07:16.963Z,9.40
2018-09-06T09:08:48.531Z,9.78
2018-09-06T09:10:20.094Z,9.75
2018-09-06T09:11:51.681Z,9.99
2018-09-06T09:13:23.289Z,10.08
2018-09-06T09:16:26.507Z,9.86
2018-09-06T09:17:57.923Z,9.90
2018-09-06T09:19:29.487Z,9.90
2018-09-06T09:21:01.056Z,10.04
2018-09-06T09:22:32.718Z,9.99
2018-09-06T09:24:04.189Z,10.02
2018-09-06T09:25:35.827Z,10.17
2018-09-06T09:27:07.322Z,10.32
2018-09-06T09:28:38.881Z,10.67
2018-09-06T09:30:10.446Z,10.94
2018-09-06T09:31:42.044Z,11.27
2018-09-06T09:33:13.579Z,11.42
2018-09-06T09:34:45.545Z,11.61
2018-09-06T09:36:16.739Z,11.60
2018-09-06T09:39:19.844Z,12.10
2018-09-06T09:42:22.978Z,13.11
2018-09-06T09:43:55.290Z,13.11
2018-09-06T09:45:26.113Z,13.63
2018-09-06T09:48:29.403Z,13.85
2018-09-06T09:50:00.818Z,13.73
2018-09-06T09:51:32.796Z,13.71
2018-09-06T09:53:04.484Z,13.91
2018-09-06T09:54:36.283Z,14.32
2018-09-06T09:56:07.136Z,14.55
2018-09-06T09:57:39.546Z,14.51
2018-09-06T09:59:10.733Z,14.60
2018-09-06T10:00:42.137Z,14.80
2018-09-06T10:02:13.568Z,14.21
2018-09-06T10:03:45.210Z,14.18
2018-09-06T10:05:16.557Z,14.12
2018-09-06T10:08:19.654Z,14.17
2018-09-06T10:09:51.251Z,14.18
2018-09-06T10:11:22.991Z,14.00
2018-09-06T10:12:54.358Z,14.02
2018-09-06T10:14:26.256Z,14.68
2018-09-06T10:15:57.609Z,14.20
2018-09-06T10:17:29.193Z,14.29
2018-09-06T10:19:00.664Z,14.22
2018-09-06T10:20:32.322Z,14.99
2018-09-06T10:22:03.899Z,14.86
2018-09-06T10:23:35.504Z,14.35
2018-09-06T10:25:08.371Z,14.21
2018-09-06T10:26:38.647Z,14.25
2018-09-06T10:28:11.108Z,14.42
2018-09-06T10:29:41.732Z,14.27
2018-09-06T10:31:13.246Z,14.12
2018-09-06T10:32:45.034Z,14.22
2018-09-06T10:34:16.419Z,14.55
2018-09-06T10:35:48.099Z,15.49
2018-09-06T10:37:19.652Z,15.67
2018-09-06T10:38:51.375Z,15.09
2018-09-06T10:40:22.815Z,14.55
2018-09-06T10:41:54.345Z,15.11
2018-09-06T10:44:57.590Z,15.47
2018-09-06T10:46:30.447Z,15.41
2018-09-06T10:48:01.353Z,15.35
2018-09-06T10:49:33.638Z,15.78
2018-09-06T10:51:04.620Z,15.17
2018-09-06T10:52:36.430Z,14.81
2018-09-06T10:54:07.847Z,15.19
2018-09-06T10:55:40.076Z,14.47
2018-09-06T10:57:11.324Z,14.77
2018-09-06T10:58:41.908Z,14.95
2018-09-06T11:00:13.112Z,15.01
2018-09-06T11:01:46.155Z,14.83
2018-09-06T11:03:16.302Z,14.33
2018-09-06T11:04:47.921Z,14.81
2018-09-06T11:06:20.104Z,14.75
2018-09-06T11:07:50.974Z,14.20
2018-09-06T11:09:22.769Z,14.45
2018-09-06T11:10:54.183Z,14.29
2018-09-06T11:12:25.703Z,14.06
2018-09-06T11:13:58.184Z,14.50
2018-09-06T11:15:29.479Z,14.10
2018-09-06T11:17:00.936Z,14.43
2018-09-06T11:18:33.104Z,14.21
2018-09-06T11:20:03.722Z,14.37
2018-09-06T11:21:35.999Z,14.57
2018-09-06T11:24:38.792Z,14.32
2018-09-06T11:26:11.583Z,14.40
2018-09-06T11:27:41.759Z,14.65
2018-09-06T11:29:13.016Z,14.54
2018-09-06T11:30:44.954Z,14.27
2018-09-06T11:32:16.187Z,14.27
2018-09-06T11:33:47.832Z,14.29
2018-09-06T11:35:19.389Z,14.39
2018-09-06T11:38:22.481Z,14.24
2018-09-06T11:39:54.291Z,14.10
2018-09-06T11:41:25.527Z,14.37
2018-09-06T11:42:57.645Z,14.36
2018-09-06T11:44:29.099Z,14.65
2018-09-06T11:46:00.797Z,15.02
2018-09-06T11:47:32.050Z,14.95
2018-09-06T11:49:03.559Z,14.68
2018-09-06T11:50:35.012Z,14.65
2018-09-06T11:52:06.548Z,14.51
2018-09-06T11:53:38.661Z,14.73
2018-09-06T11:55:10.084Z,14.64
2018-09-06T11:56:41.609Z,14.50
2018-09-06T11:59:46.043Z,14.60
2018-09-06T12:01:16.031Z,14.42
2018-09-06T12:02:47.834Z,14.54
2018-09-06T12:04:19.163Z,14.64
2018-09-06T12:07:22.609Z,14.14
2018-09-06T12:08:54.271Z,14.33
2018-09-06T12:10:25.332Z,14.42
2018-09-06T12:11:57.328Z,14.68
2018-09-06T12:13:28.579Z,14.60
2018-09-06T12:15:00.191Z,14.69
2018-09-06T12:16:32.103Z,14.80
2018-09-06T12:18:03.243Z,14.80
2018-09-06T12:19:35.288Z,14.89
2018-09-06T12:21:06.896Z,14.77
2018-09-06T12:22:38.028Z,15.10
2018-09-06T12:24:09.519Z,14.72
2018-09-06T12:25:41.551Z,15.07
2018-09-06T12:27:12.704Z,14.99
2018-09-06T12:28:44.239Z,15.03
2018-09-06T12:31:47.560Z,15.21
2018-09-06T12:33:19.448Z,15.28
2018-09-06T12:34:52.499Z,15.07
2018-09-06T12:36:23.063Z,15.11
2018-09-06T12:37:55.848Z,15.75
2018-09-06T12:39:26.240Z,15.23
2018-09-06T12:40:58.011Z,15.20
2018-09-06T12:42:29.757Z,15.50
2018-09-06T12:44:00.960Z,15.82
2018-09-06T12:45:31.687Z,15.64
2018-09-06T12:48:35.240Z,15.31
2018-09-06T12:50:06.447Z,15.39
2018-09-06T12:51:37.996Z,15.47
2018-09-06T12:53:09.709Z,16.02
2018-09-06T12:54:41.446Z,16.39
2018-09-06T12:56:12.714Z,15.64
2018-09-06T12:57:44.445Z,15.59
2018-09-06T12:59:16.570Z,15.71
2018-09-06T13:00:48.182Z,16.20
2018-09-06T13:02:20.654Z,16.41
2018-09-06T13:03:50.583Z,17.34
2018-09-06T13:05:22.139Z,18.18
2018-09-06T13:06:53.868Z,18.08
2018-09-06T13:08:25.549Z,17.79
2018-09-06T13:09:56.885Z,16.86
2018-09-06T13:11:28.334Z,16.63
2018-09-06T13:14:31.664Z,17.12
2018-09-06T13:16:03.580Z,17.56
2018-09-06T13:17:35.250Z,17.04
2018-09-06T13:19:06.397Z,18.10
2018-09-06T13:20:38.512Z,18.70
2018-09-06T13:22:09.507Z,18.52
2018-09-06T13:23:41.125Z,17.56
2018-09-06T13:25:12.792Z,17.75
2018-09-06T13:26:45.631Z,18.70
2018-09-06T13:28:17.349Z,18.05
2018-09-06T13:29:47.691Z,17.18
2018-09-06T13:31:19.731Z,17.46
2018-09-06T13:32:51.640Z,17.99
2018-09-06T13:34:23.072Z,17.66
2018-09-06T13:35:57.808Z,17.54
2018-09-06T13:38:58.389Z,17.78
2018-09-06T13:40:29.062Z,18.35
2018-09-06T13:42:05.104Z,17.75
2018-09-06T13:43:32.008Z,17.22
2018-09-06T13:45:04.599Z,17.77
2018-09-06T13:46:36.345Z,18.51
2018-09-06T13:48:06.791Z,19.00
2018-09-06T13:49:40.606Z,18.02
2018-09-06T13:51:09.899Z,18.84
2018-09-06T13:52:41.516Z,19.39
2018-09-06T13:54:14.232Z,19.78
2018-09-06T13:55:45.119Z,18.44
2018-09-06T13:57:16.423Z,18.76
2018-09-06T13:58:48.116Z,18.52
2018-09-06T14:00:20.406Z,19.61
2018-09-06T14:01:50.855Z,18.50
2018-09-06T14:03:23.223Z,18.23
2018-09-06T14:04:55.986Z,18.80
2018-09-06T14:06:27.014Z,18.41
2018-09-06T14:07:56.893Z,19.50
2018-09-06T14:09:29.117Z,19.94
2018-09-06T14:11:01.274Z,19.25
2018-09-06T14:12:34.524Z,18.82
2018-09-06T14:14:03.703Z,19.08
2018-09-06T14:15:34.948Z,19.46
2018-09-06T14:17:07.426Z,19.32
2018-09-06T14:18:38.685Z,19.25
2018-09-06T14:20:09.896Z,19.00
2018-09-06T14:21:41.381Z,18.84
2018-09-06T14:23:12.973Z,19.47
2018-09-06T14:24:44.372Z,20.36
2018-09-06T14:26:15.905Z,21.67
2018-09-06T14:27:47.674Z,19.66
2018-09-06T14:29:19.838Z,19.68
2018-09-06T14:30:51.817Z,19.66
2018-09-06T14:32:22.135Z,20.32
2018-09-06T14:33:54.097Z,20.18
2018-09-06T14:36:57.013Z,22.18
2018-09-06T14:38:28.743Z,22.35
2018-09-06T14:40:00.088Z,21.17
2018-09-06T14:43:03.165Z,20.39
2018-09-06T14:44:34.941Z,20.87
2018-09-06T14:47:38.006Z,21.84
2018-09-06T14:49:09.488Z,22.70
2018-09-06T14:50:41.104Z,21.22
2018-09-06T14:53:44.880Z,20.77
2018-09-06T14:55:15.857Z,20.58
2018-09-06T14:56:47.708Z,21.22
2018-09-06T14:59:50.799Z,20.88
2018-09-06T15:02:53.744Z,20.91
2018-09-06T15:05:57.113Z,20.97
2018-09-06T15:07:28.996Z,19.80
2018-09-06T15:09:00.075Z,20.06
2018-09-06T15:12:03.439Z,20.89
2018-09-06T15:13:34.880Z,21.44
2018-09-06T15:15:06.571Z,20.94
2018-09-06T15:18:09.995Z,21.40
2018-09-06T15:19:41.295Z,22.55
2018-09-06T15:21:14.791Z,21.92
2018-09-06T15:22:44.611Z,23.04
2018-09-06T15:24:16.755Z,23.53
2018-09-06T15:25:48.694Z,23.85
2018-09-06T15:27:19.289Z,23.51
2018-09-06T15:28:50.701Z,23.00
2018-09-06T15:30:23.024Z,23.38
2018-09-06T15:31:55.756Z,23.91
2018-09-06T15:33:26.315Z,23.48
2018-09-06T15:36:30.264Z,21.44
2018-09-06T15:39:32.045Z,21.01
2018-09-06T15:41:03.356Z,22.15
2018-09-06T15:42:35.111Z,22.30
2018-09-06T15:44:06.698Z,21.53
2018-09-06T15:45:38.397Z,20.98
2018-09-06T15:47:09.740Z,21.42
2018-09-06T15:48:41.499Z,22.57
2018-09-06T15:50:13.093Z,23.35
2018-09-06T15:51:44.626Z,23.25
2018-09-06T15:53:16.415Z,21.47
2018-09-06T15:56:19.680Z,22.10
2018-09-06T15:57:51.259Z,21.44
2018-09-06T15:59:22.817Z,22.10
2018-09-06T16:00:54.168Z,22.03
2018-09-06T16:05:28.809Z,22.05
2018-09-06T16:07:00.590Z,22.61
2018-09-06T16:08:32.337Z,21.90
2018-09-06T16:10:04.256Z,21.37
2018-09-06T16:11:36.428Z,22.14
2018-09-06T16:13:07.115Z,22.58
2018-09-06T16:14:38.326Z,23.46
2018-09-06T16:16:10.027Z,24.05
2018-09-06T16:17:42.779Z,24.43
2018-09-06T16:19:13.598Z,24.73
2018-09-06T16:20:44.551Z,24.81
2018-09-06T16:22:16.933Z,25.15
2018-09-06T16:23:48.310Z,23.27
2018-09-06T16:25:19.476Z,22.35
2018-09-06T16:26:51.220Z,23.93
2018-09-06T16:28:23.596Z,23.85
2018-09-06T16:29:54.591Z,22.91
2018-09-06T16:34:29.556Z,22.95
2018-09-06T16:36:00.876Z,23.58
2018-09-06T16:37:32.772Z,23.43
2018-09-06T16:39:03.851Z,23.48
2018-09-06T16:42:07.790Z,23.80
2018-09-06T16:43:38.996Z,24.24
2018-09-06T16:45:12.490Z,23.79
2018-09-06T16:46:41.615Z,22.94
2018-09-06T16:48:13.529Z,23.39
2018-09-06T16:49:44.903Z,23.53
2018-09-06T16:51:16.557Z,23.72
2018-09-06T16:52:49.836Z,23.42
2018-09-06T16:54:19.748Z,22.46
2018-09-06T16:55:52.058Z,22.00
2018-09-06T16:57:23.154Z,23.15
2018-09-06T16:58:55.076Z,23.53
2018-09-06T17:00:26.989Z,23.60
2018-09-06T17:01:58.084Z,24.37
2018-09-06T17:03:30.091Z,23.78
2018-09-06T17:05:01.376Z,23.63
2018-09-06T17:06:32.141Z,23.54
2018-09-06T17:08:03.629Z,23.04
2018-09-06T17:09:35.251Z,23.13
2018-09-06T17:11:06.993Z,23.20
2018-09-06T17:12:38.676Z,22.54
2018-09-06T17:14:09.958Z,22.31
2018-09-06T17:17:13.565Z,22.80
2018-09-06T17:18:44.958Z,23.22
2018-09-06T17:23:19.457Z,23.00
2018-09-06T17:24:51.091Z,23.38
2018-09-06T17:27:54.211Z,23.48
2018-09-06T17:29:25.791Z,23.38
2018-09-06T17:30:57.677Z,23.39
2018-09-06T17:32:29.217Z,23.36
2018-09-06T17:34:00.543Z,23.36
2018-09-06T17:37:04.163Z,22.27
2018-09-06T17:38:35.892Z,22.51
2018-09-06T17:40:06.874Z,23.09
2018-09-06T17:41:38.458Z,23.39
2018-09-06T17:43:10.341Z,23.87
2018-09-06T17:44:41.858Z,24.34
2018-09-06T17:46:13.207Z,23.80
2018-09-06T17:47:45.152Z,22.75
2018-09-06T17:49:16.475Z,23.22
2018-09-06T17:50:47.956Z,23.32
2018-09-06T17:52:19.699Z,23.02
2018-09-06T17:53:51.122Z,23.47
2018-09-06T17:55:23.236Z,24.34
2018-09-06T17:59:57.656Z,23.15
2018-09-06T18:03:00.922Z,22.46
2018-09-06T18:04:32.825Z,22.51
2018-09-06T18:06:03.789Z,22.83
2018-09-06T18:07:35.368Z,23.12
2018-09-06T18:09:07.050Z,22.52
2018-09-06T18:12:10.114Z,23.38
2018-09-06T18:13:41.697Z,23.20
2018-09-06T18:15:13.478Z,22.42
2018-09-06T18:16:45.063Z,21.88
2018-09-06T18:18:16.650Z,22.28
2018-09-06T18:19:48.329Z,21.77
2018-09-06T18:21:19.707Z,21.42
2018-09-06T18:22:52.754Z,22.92
2018-09-06T18:24:22.776Z,23.79
2018-09-06T18:27:26.035Z,24.16
2018-09-06T18:28:57.516Z,24.05
2018-09-06T18:32:01.037Z,23.39
2018-09-06T18:33:32.662Z,22.68
2018-09-06T18:36:35.423Z,22.33
2018-09-06T18:38:07.008Z,22.02
2018-09-06T18:39:38.692Z,21.91
2018-09-06T18:41:10.712Z,22.43
2018-09-06T18:42:41.747Z,21.67
2018-09-06T18:44:13.535Z,22.12
2018-09-06T18:48:49.020Z,21.43
2018-09-06T18:50:19.650Z,21.40
2018-09-06T18:51:51.246Z,21.77
2018-09-06T18:53:22.811Z,22.03
2018-09-06T18:54:54.594Z,22.35
2018-09-06T18:56:26.513Z,22.49
2018-09-06T18:57:57.553Z,22.62
2018-09-06T18:59:29.149Z,22.17
2018-09-06T19:01:00.814Z,22.54
2018-09-06T19:02:32.592Z,22.49
2018-09-06T19:04:03.870Z,22.47
2018-09-06T19:05:35.450Z,22.28
2018-09-06T19:07:07.430Z,22.35
2018-09-06T19:08:38.608Z,21.52
2018-09-06T19:10:10.185Z,22.30
2018-09-06T19:14:45.223Z,21.42
2018-09-06T19:16:16.501Z,21.82
2018-09-06T19:17:48.080Z,21.90
2018-09-06T19:20:51.338Z,19.50
2018-09-06T19:23:54.596Z,20.58
2018-09-06T19:25:25.972Z,20.97
2018-09-06T19:28:29.329Z,21.61
2018-09-06T19:31:32.308Z,18.21
2018-09-06T19:33:03.859Z,19.23
2018-09-06T19:36:07.112Z,20.11
2018-09-06T19:37:38.589Z,19.50
2018-09-06T19:39:10.197Z,20.06
2018-09-06T19:40:41.740Z,19.83
2018-09-06T19:42:13.720Z,19.44
2018-09-06T19:43:45.102Z,19.54
2018-09-06T19:46:48.044Z,18.80
2018-09-06T19:48:19.819Z,18.00
2018-09-06T19:49:51.195Z,18.26
2018-09-06T19:51:22.973Z,18.35
2018-09-06T19:52:54.548Z,18.18
2018-09-06T19:54:26.023Z,18.10
2018-09-06T19:55:57.800Z,17.90
2018-09-06T19:57:29.622Z,17.74
2018-09-06T19:59:00.643Z,17.55
2018-09-06T20:00:32.762Z,17.54
2018-09-06T20:02:03.805Z,17.38
2018-09-06T20:03:35.466Z,17.04
2018-09-06T20:05:06.939Z,17.31
2018-09-06T20:08:10.118Z,16.91
2018-09-06T20:09:41.760Z,16.25
2018-09-06T20:11:13.232Z,16.35
2018-09-06T20:14:16.377Z,16.30
2018-09-06T20:15:48.556Z,16.25
2018-09-06T20:17:19.521Z,16.12
2018-09-06T20:20:22.667Z,16.11
2018-09-06T20:21:54.336Z,16.01
2018-09-06T20:23:25.810Z,16.00
2018-09-06T20:24:57.385Z,16.09
2018-09-06T20:26:28.952Z,16.24
2018-09-06T20:31:04.075Z,15.65
2018-09-06T20:32:35.236Z,15.53
2018-09-06T20:34:06.806Z,15.59
2018-09-06T20:35:38.907Z,15.39
2018-09-06T20:37:10.050Z,15.46
2018-09-06T20:38:41.518Z,15.35
2018-09-06T20:40:13.091Z,15.31
2018-09-06T20:41:44.723Z,15.39
2018-09-06T20:43:16.332Z,15.47
2018-09-06T20:44:47.804Z,15.38
2018-09-06T20:46:19.373Z,15.35
2018-09-06T20:47:51.143Z,15.29
2018-09-06T20:50:54.787Z,15.10
2018-09-06T20:52:25.652Z,15.25
2018-09-06T20:53:57.222Z,15.06
2018-09-06T20:55:28.793Z,15.09
2018-09-06T20:57:00.364Z,15.19
2018-09-06T20:58:31.930Z,15.17
2018-09-06T21:00:03.502Z,15.20
2018-09-06T21:03:07.157Z,15.19
2018-09-06T21:04:38.514Z,15.10
2018-09-06T21:06:09.780Z,14.98
2018-09-06T21:07:41.376Z,15.10
2018-09-06T21:09:13.320Z,14.94
2018-09-06T21:10:44.500Z,14.96
2018-09-06T21:12:16.059Z,14.99
2018-09-06T21:13:47.629Z,14.96
2018-09-06T21:15:19.296Z,14.84
2018-09-06T21:18:22.336Z,14.95
2018-09-06T21:19:53.905Z,14.92
2018-09-06T21:21:25.579Z,14.81
2018-09-06T21:22:57.044Z,14.78
2018-09-06T21:24:28.616Z,14.64
2018-09-06T21:26:00.183Z,14.64
2018-09-06T21:27:32.004Z,14.64
2018-09-06T21:29:03.322Z,14.68
2018-09-06T21:30:34.890Z,14.64